createdAt,value
2019-04-03T00:01:25.490Z,60.88
2019-04-03T00:03:55.275Z,61.12
2019-04-03T00:06:24.949Z,62.09
2019-04-03T00:08:54.677Z,61.79
2019-04-03T00:11:24.434Z,62.60
2019-04-03T00:13:54.128Z,62.08
2019-04-03T00:16:23.797Z,65.70
2019-04-03T00:18:53.447Z,66.14
2019-04-03T00:21:23.165Z,62.39
2019-04-03T00:23:53.135Z,61.47
2019-04-03T00:26:23.022Z,61.90
2019-04-03T00:28:52.935Z,64.01
2019-04-03T00:31:23.417Z,66.91
2019-04-03T00:33:53.891Z,68.79
2019-04-03T00:36:23.914Z,69.68
2019-04-03T00:38:54.284Z,69.91
2019-04-03T00:41:25.076Z,70.21
2019-04-03T00:43:55.095Z,70.27
2019-04-03T00:46:25.216Z,69.24
2019-04-03T00:48:55.727Z,68.64
2019-04-03T00:51:27.407Z,68.10
2019-04-03T00:53:58.666Z,67.50
2019-04-03T00:56:28.343Z,66.81
2019-04-03T00:58:58.010Z,66.41
2019-04-03T01:01:27.777Z,65.96
2019-04-03T01:03:58.858Z,65.86
2019-04-03T01:06:29.077Z,65.55
2019-04-03T01:08:59.875Z,64.96
2019-04-03T01:11:30.639Z,64.89
2019-04-03T01:14:01.669Z,64.29
2019-04-03T01:16:33.096Z,64.45
2019-04-03T01:19:05.194Z,63.63
2019-04-03T01:21:37.237Z,63.27
2019-04-03T01:24:08.295Z,63.32
2019-04-03T01:26:40.409Z,63.45
2019-04-03T01:29:10.643Z,63.71
2019-04-03T01:31:41.256Z,63.61
2019-04-03T01:34:11.099Z,63.80
2019-04-03T01:36:40.876Z,63.44
2019-04-03T01:39:10.752Z,63.43
2019-04-03T01:41:40.493Z,63.21
2019-04-03T01:44:10.263Z,63.98
2019-04-03T01:46:40.135Z,64.33
2019-04-03T01:49:10.055Z,63.04
2019-04-03T01:51:39.765Z,64.56
2019-04-03T01:54:09.459Z,64.90
2019-04-03T01:56:39.188Z,66.85
2019-04-03T01:59:08.892Z,66.23
2019-04-03T02:01:39.137Z,66.28
2019-04-03T02:04:09.114Z,65.58
2019-04-03T02:06:38.802Z,64.97
2019-04-03T02:09:10.414Z,65.03
2019-04-03T02:11:40.177Z,64.76
2019-04-03T02:14:09.869Z,65.14
2019-04-03T02:16:39.589Z,63.89
2019-04-03T02:19:09.351Z,67.00
2019-04-03T02:21:40.095Z,67.41
2019-04-03T02:24:10.114Z,68.94
2019-04-03T02:26:39.949Z,69.23
2019-04-03T02:29:09.697Z,69.08
2019-04-03T02:31:39.706Z,69.23
2019-04-03T02:34:09.551Z,68.41
2019-04-03T02:36:43.313Z,68.71
2019-04-03T02:39:10.990Z,69.22
2019-04-03T02:41:40.738Z,65.36
2019-04-03T02:44:10.753Z,65.02
2019-04-03T02:46:40.515Z,64.60
2019-04-03T02:49:11.060Z,64.95
2019-04-03T02:51:43.699Z,65.02
2019-04-03T02:54:29.840Z,64.98
2019-04-03T02:56:59.803Z,66.54
2019-04-03T02:59:29.752Z,65.41
2019-04-03T03:01:59.536Z,65.44
2019-04-03T03:04:29.410Z,64.90
2019-04-03T03:06:59.137Z,64.56
2019-04-03T03:09:30.761Z,64.16
2019-04-03T03:12:01.990Z,64.19
2019-04-03T03:14:31.941Z,63.94
2019-04-03T03:17:02.221Z,64.36
2019-04-03T03:19:33.374Z,65.62
2019-04-03T03:22:04.017Z,65.51
2019-04-03T03:24:38.721Z,65.79
2019-04-03T03:27:10.273Z,67.45
2019-04-03T03:29:40.975Z,67.18
2019-04-03T03:32:18.708Z,65.43
2019-04-03T03:34:54.046Z,65.82
2019-04-03T03:37:15.621Z,66.62
2019-04-03T03:39:45.873Z,68.32
2019-04-03T03:42:16.406Z,69.08
2019-04-03T03:44:46.992Z,68.43
2019-04-03T03:47:18.354Z,68.90
2019-04-03T03:49:50.896Z,67.77
2019-04-03T03:52:22.199Z,67.95
2019-04-03T03:54:52.554Z,70.12
2019-04-03T03:57:22.854Z,70.77
2019-04-03T03:59:52.890Z,71.39
2019-04-03T04:02:23.794Z,71.74
2019-04-03T04:04:53.650Z,71.95
2019-04-03T04:07:23.831Z,71.44
2019-04-03T04:09:54.111Z,71.55
2019-04-03T04:12:24.672Z,69.69
2019-04-03T04:14:56.879Z,69.92
2019-04-03T04:17:27.031Z,70.34
2019-04-03T04:19:57.769Z,71.60
2019-04-03T04:22:28.252Z,71.56
2019-04-03T04:25:00.837Z,70.61
2019-04-03T04:27:33.470Z,70.04
2019-04-03T04:30:02.445Z,69.22
2019-04-03T04:32:32.275Z,69.08
2019-04-03T04:35:01.999Z,68.05
2019-04-03T04:37:31.713Z,68.26
2019-04-03T04:40:01.510Z,68.02
2019-04-03T04:42:31.453Z,67.09
2019-04-03T04:45:02.673Z,67.36
2019-04-03T04:47:32.370Z,66.66
2019-04-03T04:50:02.201Z,67.68
2019-04-03T04:52:31.927Z,67.12
2019-04-03T04:55:02.789Z,66.25
2019-04-03T04:57:32.568Z,66.58
2019-04-03T05:00:02.379Z,66.58
2019-04-03T05:02:32.262Z,65.85
2019-04-03T05:05:01.934Z,66.61
2019-04-03T05:07:31.613Z,65.94
2019-04-03T05:10:01.319Z,67.17
2019-04-03T05:12:31.146Z,66.22
2019-04-03T05:15:00.997Z,66.81
2019-04-03T05:17:30.766Z,67.48
2019-04-03T05:20:00.496Z,67.45
2019-04-03T05:22:31.162Z,67.07
2019-04-03T05:25:00.892Z,67.54
2019-04-03T05:27:33.334Z,67.47
2019-04-03T05:30:02.136Z,67.23
2019-04-03T05:32:31.974Z,67.32
2019-04-03T05:35:01.696Z,67.46
2019-04-03T05:37:31.662Z,67.38
2019-04-03T05:40:01.385Z,67.33
2019-04-03T05:42:31.086Z,67.53
2019-04-03T05:45:03.629Z,67.52
2019-04-03T05:47:32.200Z,67.54
2019-04-03T05:50:02.299Z,67.18
2019-04-03T05:52:33.152Z,67.46
2019-04-03T05:55:03.811Z,67.50
2019-04-03T05:57:33.633Z,67.56
2019-04-03T06:00:06.138Z,67.83
2019-04-03T06:02:35.176Z,66.98
2019-04-03T06:05:06.708Z,67.16
2019-04-03T06:07:36.886Z,68.05
2019-04-03T06:10:07.733Z,69.05
2019-04-03T06:12:37.848Z,68.60
2019-04-03T06:15:10.257Z,68.47
2019-04-03T06:17:40.298Z,68.97
2019-04-03T06:20:11.590Z,68.53
2019-04-03T06:22:41.329Z,68.41
2019-04-03T06:25:13.986Z,68.73
2019-04-03T06:27:45.756Z,68.77
2019-04-03T06:30:15.609Z,68.79
2019-04-03T06:32:45.462Z,68.91
2019-04-03T06:35:16.238Z,69.07
2019-04-03T06:37:45.977Z,68.97
2019-04-03T06:40:15.961Z,68.89
2019-04-03T06:42:45.759Z,68.28
2019-04-03T06:45:16.157Z,67.98
2019-04-03T06:47:46.960Z,67.98
2019-04-03T06:50:17.555Z,68.48
2019-04-03T06:52:47.755Z,68.38
2019-04-03T06:55:17.421Z,66.93
2019-04-03T06:57:47.391Z,67.73
2019-04-03T07:00:17.316Z,67.38
2019-04-03T07:02:47.026Z,65.19
2019-04-03T07:05:16.724Z,65.38
2019-04-03T07:07:46.439Z,65.07
2019-04-03T07:10:25.046Z,65.62
2019-04-03T07:12:48.122Z,64.43
2019-04-03T07:15:18.436Z,65.34
2019-04-03T07:17:48.203Z,65.29
2019-04-03T07:20:20.114Z,65.57
2019-04-03T07:22:49.580Z,66.06
2019-04-03T07:25:19.451Z,66.84
2019-04-03T07:27:49.157Z,65.77
2019-04-03T07:30:19.973Z,66.04
2019-04-03T07:32:50.554Z,64.85
2019-04-03T07:35:20.236Z,66.33
2019-04-03T07:37:50.988Z,65.29
2019-04-03T07:40:22.304Z,66.16
2019-04-03T07:42:52.266Z,68.38
2019-04-03T07:45:22.082Z,69.24
2019-04-03T07:47:51.798Z,68.22
2019-04-03T07:50:21.583Z,68.64
2019-04-03T07:52:51.283Z,69.03
2019-04-03T07:55:23.543Z,68.87
2019-04-03T07:57:52.385Z,69.64
2019-04-03T08:00:22.672Z,70.34
2019-04-03T08:02:52.663Z,70.36
2019-04-03T08:05:22.359Z,70.99
2019-04-03T08:07:52.053Z,71.97
2019-04-03T08:10:21.859Z,73.16
2019-04-03T08:12:51.888Z,73.15
2019-04-03T08:15:21.589Z,72.38
2019-04-03T08:17:51.521Z,74.46
2019-04-03T08:20:21.574Z,75.08
2019-04-03T08:22:51.276Z,75.22
2019-04-03T08:25:20.985Z,73.51
2019-04-03T08:27:50.756Z,70.37
2019-04-03T08:30:21.284Z,69.70
2019-04-03T08:32:51.080Z,69.76
2019-04-03T08:35:23.643Z,71.56
2019-04-03T08:37:52.304Z,69.16
2019-04-03T08:40:22.039Z,70.15
2019-04-03T08:42:52.226Z,69.49
2019-04-03T08:45:22.275Z,70.84
2019-04-03T08:47:51.916Z,71.22
2019-04-03T08:50:21.783Z,71.24
2019-04-03T08:52:51.485Z,72.24
2019-04-03T08:55:21.227Z,70.79
2019-04-03T08:57:52.469Z,71.56
2019-04-03T09:00:22.674Z,71.10
2019-04-03T09:02:52.496Z,70.98
2019-04-03T09:05:22.376Z,70.77
2019-04-03T09:07:55.261Z,70.81
2019-04-03T09:10:23.748Z,71.68
2019-04-03T09:12:53.592Z,71.64
2019-04-03T09:15:23.467Z,73.14
2019-04-03T09:17:53.416Z,73.03
2019-04-03T09:20:23.241Z,73.92
2019-04-03T09:22:54.015Z,72.40
2019-04-03T09:25:24.277Z,72.69
2019-04-03T09:27:53.954Z,71.79
2019-04-03T09:30:24.412Z,71.67
2019-04-03T09:32:54.450Z,72.35
2019-04-03T09:35:24.360Z,70.11
2019-04-03T09:37:54.315Z,67.87
2019-04-03T09:40:24.608Z,65.95
2019-04-03T09:42:54.436Z,61.08
2019-04-03T09:45:24.150Z,62.92
2019-04-03T09:47:53.832Z,61.01
2019-04-03T09:50:23.788Z,60.86
2019-04-03T09:52:54.883Z,61.40
2019-04-03T09:55:25.079Z,64.25
2019-04-03T09:57:54.782Z,64.46
2019-04-03T10:00:26.599Z,64.93
2019-04-03T10:02:56.396Z,64.03
2019-04-03T10:05:28.349Z,63.26
2019-04-03T10:07:57.527Z,62.96
2019-04-03T10:10:27.449Z,61.50
2019-04-03T10:12:57.208Z,60.37
2019-04-03T10:15:27.274Z,60.96
2019-04-03T10:17:57.131Z,59.82
2019-04-03T10:20:27.140Z,60.41
2019-04-03T10:22:57.047Z,60.43
2019-04-03T10:25:26.966Z,59.53
2019-04-03T10:27:56.864Z,61.29
2019-04-03T10:30:27.101Z,61.51
2019-04-03T10:32:59.546Z,63.14
2019-04-03T10:35:28.614Z,63.60
2019-04-03T10:37:58.301Z,64.80
2019-04-03T10:40:28.002Z,65.36
2019-04-03T10:43:00.082Z,66.65
2019-04-03T10:45:29.510Z,66.49
2019-04-03T10:47:59.256Z,67.51
2019-04-03T10:50:28.985Z,67.05
2019-04-03T10:52:59.250Z,65.51
2019-04-03T10:55:29.594Z,61.59
2019-04-03T10:58:01.583Z,56.19
2019-04-03T11:00:30.926Z,53.33
2019-04-03T11:03:00.845Z,52.69
2019-04-03T11:05:30.683Z,54.93
2019-04-03T11:08:00.455Z,57.89
2019-04-03T11:10:30.163Z,58.48
2019-04-03T11:13:00.904Z,59.42
2019-04-03T11:15:31.422Z,60.68
2019-04-03T11:18:01.096Z,58.88
2019-04-03T11:20:30.809Z,61.03
2019-04-03T11:23:06.364Z,59.34
2019-04-03T11:25:31.997Z,61.27
2019-04-03T11:28:05.126Z,61.20
2019-04-03T11:30:33.178Z,59.34
2019-04-03T11:33:02.961Z,59.38
2019-04-03T11:35:32.786Z,61.68
2019-04-03T11:38:13.088Z,60.81
2019-04-03T11:40:34.013Z,60.44
2019-04-03T11:43:03.699Z,58.86
2019-04-03T11:45:33.729Z,57.38
2019-04-03T11:48:03.741Z,59.42
2019-04-03T11:50:33.552Z,58.97
2019-04-03T11:53:07.144Z,58.57
2019-04-03T11:55:34.739Z,58.69
2019-04-03T11:58:04.791Z,56.96
2019-04-03T12:00:39.250Z,59.95
2019-04-03T12:03:10.713Z,58.78
2019-04-03T12:05:40.458Z,58.58
2019-04-03T12:08:12.427Z,57.11
2019-04-03T12:10:41.766Z,56.12
2019-04-03T12:13:13.560Z,56.54
2019-04-03T12:15:42.874Z,58.58
2019-04-03T12:18:12.871Z,57.83
2019-04-03T12:20:44.887Z,56.80
2019-04-03T12:23:14.042Z,57.34
2019-04-03T12:25:43.742Z,57.77
2019-04-03T12:28:13.407Z,59.03
2019-04-03T12:30:43.704Z,59.18
2019-04-03T12:33:13.671Z,58.16
2019-04-03T12:35:43.403Z,58.07
2019-04-03T12:38:13.540Z,56.49
2019-04-03T12:40:44.562Z,56.17
2019-04-03T12:43:14.403Z,58.67
2019-04-03T12:45:45.343Z,55.46
2019-04-03T12:48:17.159Z,56.41
2019-04-03T12:50:46.870Z,55.92
2019-04-03T12:53:17.317Z,56.54
2019-04-03T12:55:47.117Z,56.15
2019-04-03T12:58:16.804Z,54.04
2019-04-03T13:00:46.780Z,54.27
2019-04-03T13:03:16.949Z,54.31
2019-04-03T13:05:48.605Z,54.70
2019-04-03T13:08:20.266Z,56.81
2019-04-03T13:10:49.795Z,58.00
2019-04-03T13:13:19.454Z,59.36
2019-04-03T13:15:49.380Z,60.34
2019-04-03T13:18:20.087Z,59.27
2019-04-03T13:20:49.943Z,58.97
2019-04-03T13:23:20.199Z,58.71
2019-04-03T13:25:51.007Z,56.33
2019-04-03T13:28:21.632Z,54.67
2019-04-03T13:30:51.346Z,54.92
2019-04-03T13:33:21.153Z,52.12
2019-04-03T13:35:50.975Z,54.52
2019-04-03T13:38:20.819Z,53.41
2019-04-03T13:40:50.986Z,53.51
2019-04-03T13:43:21.924Z,53.11
2019-04-03T13:45:52.265Z,56.02
2019-04-03T13:48:22.003Z,54.19
2019-04-03T13:50:54.181Z,55.81
2019-04-03T13:53:25.391Z,54.19
2019-04-03T13:55:54.653Z,54.88
2019-04-03T13:58:27.024Z,54.17
2019-04-03T14:01:00.790Z,54.34
2019-04-03T14:03:27.946Z,54.36
2019-04-03T14:05:58.141Z,53.79
2019-04-03T14:08:28.041Z,56.07
2019-04-03T14:10:58.851Z,55.81
2019-04-03T14:13:28.873Z,58.14
2019-04-03T14:15:58.578Z,57.93
2019-04-03T14:18:28.461Z,57.11
2019-04-03T14:20:58.225Z,57.53
2019-04-03T14:23:27.904Z,56.97
2019-04-03T14:26:05.584Z,55.78
2019-04-03T14:28:28.997Z,54.88
2019-04-03T14:30:58.704Z,53.66
2019-04-03T14:33:41.271Z,54.75
2019-04-03T14:36:00.146Z,56.46
2019-04-03T14:38:32.385Z,55.37
2019-04-03T14:41:03.082Z,58.28
2019-04-03T14:43:34.436Z,55.64
2019-04-03T14:46:04.960Z,56.12
2019-04-03T14:48:34.813Z,57.32
2019-04-03T14:51:06.404Z,56.49
2019-04-03T14:53:36.214Z,55.40
2019-04-03T14:56:06.213Z,55.09
2019-04-03T14:58:37.117Z,55.59
2019-04-03T15:01:06.942Z,56.32
2019-04-03T15:03:37.115Z,55.30
2019-04-03T15:06:06.978Z,52.50
2019-04-03T15:08:37.018Z,54.81
2019-04-03T15:11:06.834Z,54.44
2019-04-03T15:13:36.729Z,54.53
2019-04-03T15:16:06.861Z,53.00
2019-04-03T15:18:37.160Z,53.01
2019-04-03T15:21:07.224Z,53.48
2019-04-03T15:23:40.432Z,51.67
2019-04-03T15:26:08.321Z,53.60
2019-04-03T15:28:38.361Z,52.35
2019-04-03T15:31:08.160Z,52.71
2019-04-03T15:33:37.877Z,52.10
2019-04-03T15:36:07.954Z,53.13
2019-04-03T15:38:37.647Z,53.73
2019-04-03T15:41:07.320Z,54.50
2019-04-03T15:43:37.194Z,54.37
2019-04-03T15:46:06.893Z,55.11
2019-04-03T15:48:38.531Z,54.72
2019-04-03T15:51:08.720Z,55.92
2019-04-03T15:53:38.416Z,55.00
2019-04-03T15:56:11.827Z,54.51
2019-04-03T15:58:39.735Z,56.47
2019-04-03T16:01:09.515Z,56.18
2019-04-03T16:03:39.214Z,56.19
2019-04-03T16:06:08.976Z,56.85
2019-04-03T16:08:39.078Z,56.74
2019-04-03T16:11:09.151Z,57.18
2019-04-03T16:13:38.924Z,57.69
2019-04-03T16:16:08.708Z,57.84
2019-04-03T16:18:39.023Z,58.07
2019-04-03T16:21:08.857Z,58.87
2019-04-03T16:23:38.775Z,59.19
2019-04-03T16:26:08.863Z,58.85
2019-04-03T16:28:38.736Z,59.90
2019-04-03T16:31:08.489Z,59.75
2019-04-03T16:33:38.196Z,59.41
2019-04-03T16:42:21.363Z,60.89
2019-04-03T16:44:53.201Z,60.66
2019-04-03T16:47:25.463Z,61.10
2019-04-03T16:49:55.989Z,61.11
2019-04-03T16:52:26.057Z,61.72
2019-04-03T16:54:55.997Z,63.47
2019-04-03T16:57:26.476Z,62.74
2019-04-03T16:59:56.573Z,63.29
2019-04-03T17:02:29.143Z,64.58
2019-04-03T17:04:58.469Z,63.92
2019-04-03T17:07:28.536Z,64.66
2019-04-03T17:09:58.279Z,64.59
2019-04-03T17:12:28.161Z,65.68
2019-04-03T17:14:58.121Z,65.67
2019-04-03T17:17:27.993Z,66.05
2019-04-03T17:19:57.970Z,65.95
2019-04-03T17:22:28.188Z,65.85
2019-04-03T17:24:58.049Z,66.71
2019-04-03T17:27:30.171Z,66.99
2019-04-03T17:29:59.619Z,66.90
2019-04-03T17:32:30.835Z,67.26
2019-04-03T17:35:01.432Z,67.35
2019-04-03T17:37:31.151Z,67.69
2019-04-03T17:40:01.038Z,68.57
2019-04-03T17:42:31.446Z,68.96
2019-04-03T17:45:35.262Z,69.06
2019-04-03T17:48:05.747Z,69.00
2019-04-03T17:50:35.487Z,69.07
2019-04-03T17:53:06.640Z,69.72
2019-04-03T17:55:37.777Z,70.07
2019-04-03T17:58:07.566Z,70.67
2019-04-03T18:00:37.453Z,69.98
2019-04-03T18:03:07.188Z,70.03
2019-04-03T18:05:37.043Z,70.31
2019-04-03T18:08:07.269Z,70.14
2019-04-03T18:10:37.483Z,70.83
2019-04-03T18:13:07.443Z,71.31
2019-04-03T18:15:37.193Z,71.81
2019-04-03T18:18:07.072Z,72.06
2019-04-03T18:20:37.408Z,72.25
2019-04-03T18:23:07.351Z,72.31
2019-04-03T18:25:37.086Z,72.48
2019-04-03T18:28:06.951Z,72.48
2019-04-03T18:30:36.816Z,73.26
2019-04-03T18:33:06.686Z,73.94
2019-04-03T18:35:36.599Z,74.51
2019-04-03T18:38:08.044Z,75.17
2019-04-03T18:40:41.967Z,75.33
2019-04-03T18:43:11.975Z,74.95
2019-04-03T18:45:41.861Z,75.45
2019-04-03T18:48:12.707Z,74.75
2019-04-03T18:50:42.671Z,74.22
2019-04-03T18:53:12.576Z,73.43
2019-04-03T18:55:44.629Z,72.84
2019-04-03T18:58:14.139Z,72.19
2019-04-03T19:00:44.074Z,72.03
2019-04-03T19:03:14.042Z,71.80
2019-04-03T19:05:43.978Z,71.36
2019-04-03T19:08:17.793Z,71.44
2019-04-03T19:10:47.272Z,71.58
2019-04-03T19:13:17.387Z,71.75
2019-04-03T19:15:47.405Z,71.81
2019-04-03T19:18:19.850Z,72.06
2019-04-03T19:20:48.915Z,72.40
2019-04-03T19:23:18.729Z,72.77
2019-04-03T19:25:48.831Z,72.58
2019-04-03T19:28:18.827Z,72.53
2019-04-03T19:30:49.616Z,72.17
2019-04-03T19:33:19.687Z,72.56
2019-04-03T19:35:49.820Z,72.52
2019-04-03T19:38:19.930Z,72.43
2019-04-03T19:40:49.888Z,72.34
2019-04-03T19:43:19.942Z,72.42
2019-04-03T19:45:51.672Z,72.30
2019-04-03T19:48:21.645Z,72.27
2019-04-03T19:50:51.410Z,72.53
2019-04-03T19:53:21.370Z,72.69
2019-04-03T19:55:54.479Z,72.73
2019-04-03T19:58:23.367Z,72.53
2019-04-03T20:00:53.247Z,72.52
2019-04-03T20:03:23.236Z,72.30
2019-04-03T20:05:55.076Z,72.54
2019-04-03T20:08:24.974Z,72.66
2019-04-03T20:10:54.963Z,72.59
2019-04-03T20:13:27.859Z,72.82
2019-04-03T20:15:56.582Z,72.88
2019-04-03T20:18:26.641Z,73.12
2019-04-03T20:20:56.567Z,73.24
2019-04-03T20:23:26.376Z,73.31
2019-04-03T20:25:56.179Z,73.12
2019-04-03T20:28:26.247Z,72.90
2019-04-03T20:30:56.158Z,73.14
2019-04-03T20:33:26.182Z,73.30
2019-04-03T20:35:56.149Z,73.44
2019-04-03T20:38:27.512Z,73.33
2019-04-03T20:40:57.732Z,73.55
2019-04-03T20:43:27.488Z,73.46
2019-04-03T20:45:57.357Z,73.31
2019-04-03T20:48:28.301Z,73.28
2019-04-03T20:50:58.671Z,72.76
2019-04-03T20:53:28.537Z,72.65
2019-04-03T20:55:58.741Z,72.24
2019-04-03T20:58:28.535Z,71.89
2019-04-03T21:01:06.861Z,71.97
2019-04-03T21:03:30.048Z,71.86
2019-04-03T21:05:59.932Z,71.63
2019-04-03T21:08:31.552Z,71.42
2019-04-03T21:11:02.378Z,71.14
2019-04-03T21:13:32.681Z,70.72
2019-04-03T21:16:02.769Z,70.31
2019-04-03T21:18:32.608Z,70.16
2019-04-03T21:21:02.588Z,69.65
2019-04-03T21:23:33.507Z,69.03
2019-04-03T21:26:06.613Z,68.54
2019-04-03T21:28:35.517Z,68.20
2019-04-03T21:31:11.445Z,67.55
2019-04-03T21:33:41.318Z,67.31
2019-04-03T21:36:11.106Z,67.11
2019-04-03T21:38:41.727Z,66.97
2019-04-03T21:41:12.076Z,66.67
2019-04-03T21:43:41.854Z,66.77
2019-04-03T21:46:12.097Z,66.61
2019-04-03T21:48:44.475Z,66.37
2019-04-03T21:51:13.364Z,66.06
2019-04-03T21:53:43.057Z,66.00
2019-04-03T21:56:13.872Z,65.61
2019-04-03T21:58:43.713Z,65.56
2019-04-03T22:01:25.927Z,65.55
2019-04-03T22:03:55.780Z,65.52
2019-04-03T22:06:27.813Z,65.81
2019-04-03T22:09:00.516Z,65.74
2019-04-03T22:11:29.680Z,65.84
2019-04-03T22:13:59.432Z,66.26
2019-04-03T22:16:29.226Z,66.55
2019-04-03T22:18:59.972Z,66.88
2019-04-03T22:21:32.202Z,67.42
2019-04-03T22:24:01.393Z,67.70
2019-04-03T22:26:31.649Z,67.56
2019-04-03T22:29:01.751Z,68.11
2019-04-03T22:31:32.167Z,68.00
2019-04-03T22:34:02.169Z,67.79
2019-04-03T22:36:33.695Z,67.74
2019-04-03T22:39:04.144Z,67.58
2019-04-03T22:41:35.609Z,67.44
2019-04-03T22:44:06.025Z,67.07
2019-04-03T22:46:36.018Z,66.94
2019-04-03T22:49:07.215Z,67.00
2019-04-03T22:51:37.703Z,66.40
2019-04-03T22:54:10.877Z,65.84
2019-04-03T22:56:41.209Z,65.58
2019-04-03T22:59:11.042Z,64.60
2019-04-03T23:01:40.785Z,63.48
2019-04-03T23:04:14.099Z,63.47
2019-04-03T23:06:44.478Z,62.99
2019-04-03T23:09:14.368Z,62.03
2019-04-03T23:11:45.368Z,63.74
2019-04-03T23:14:15.086Z,65.90
2019-04-03T23:16:44.898Z,66.38
2019-04-03T23:19:17.629Z,64.18
2019-04-03T23:21:46.033Z,65.68
2019-04-03T23:24:15.775Z,65.38
2019-04-03T23:26:45.523Z,65.44
2019-04-03T23:29:15.156Z,65.60
2019-04-03T23:31:45.471Z,65.48
2019-04-03T23:34:18.839Z,65.89
2019-04-03T23:36:46.850Z,66.68
2019-04-03T23:39:16.614Z,66.94
2019-04-03T23:41:46.334Z,66.92
2019-04-03T23:44:15.992Z,67.70
2019-04-03T23:46:46.078Z,67.17
2019-04-03T23:49:15.892Z,67.13
2019-04-03T23:51:45.647Z,67.58
2019-04-03T23:54:15.533Z,68.05
2019-04-03T23:56:45.397Z,68.88
2019-04-03T23:59:15.120Z,69.46
